createdAt,value
2018-09-11T00:00:50.977Z,15.55
2018-09-11T00:03:19.593Z,15.56
2018-09-11T00:06:03.865Z,15.59
2018-09-11T00:08:32.298Z,15.63
2018-09-11T00:11:00.988Z,15.60
2018-09-11T00:13:29.464Z,15.58
2018-09-11T00:15:57.885Z,15.53
2018-09-11T00:18:26.533Z,15.55
2018-09-11T00:20:55.067Z,15.49
2018-09-11T00:23:23.553Z,15.48
2018-09-11T00:25:52.274Z,15.48
2018-09-11T00:28:20.866Z,15.43
2018-09-11T00:30:49.450Z,15.38
2018-09-11T00:33:17.918Z,15.32
2018-09-11T00:35:46.494Z,15.30
2018-09-11T00:38:14.926Z,15.30
2018-09-11T00:40:43.361Z,15.31
2018-09-11T00:43:11.848Z,15.30
2018-09-11T00:45:40.422Z,15.25
2018-09-11T00:48:09.218Z,15.20
2018-09-11T00:50:37.770Z,15.14
2018-09-11T00:53:06.266Z,15.12
2018-09-11T00:55:34.750Z,15.03
2018-09-11T00:58:03.331Z,15.03
2018-09-11T01:00:31.811Z,15.06
2018-09-11T01:03:00.345Z,15.07
2018-09-11T01:05:28.889Z,15.16
2018-09-11T01:07:57.356Z,15.20
2018-09-11T01:10:25.882Z,15.22
2018-09-11T01:12:54.432Z,15.28
2018-09-11T01:15:22.873Z,15.32
2018-09-11T01:17:51.309Z,15.34
2018-09-11T01:20:19.777Z,15.28
2018-09-11T01:22:48.251Z,15.20
2018-09-11T01:25:16.705Z,15.22
2018-09-11T01:27:45.212Z,15.25
2018-09-11T01:30:17.860Z,15.28
2018-09-11T01:32:46.370Z,15.25
2018-09-11T01:35:14.892Z,15.26
2018-09-11T01:37:43.444Z,15.25
2018-09-11T01:40:11.971Z,15.26
2018-09-11T01:42:40.513Z,15.24
2018-09-11T01:45:09.212Z,15.21
2018-09-11T01:47:37.652Z,15.17
2018-09-11T01:50:06.232Z,15.13
2018-09-11T01:52:34.684Z,15.12
2018-09-11T01:55:03.230Z,15.08
2018-09-11T01:57:31.717Z,15.05
2018-09-11T02:00:00.184Z,15.03
2018-09-11T02:02:28.670Z,15.04
2018-09-11T02:04:57.160Z,15.01
2018-09-11T02:07:25.728Z,14.95
2018-09-11T02:09:57.358Z,14.91
2018-09-11T02:12:25.844Z,14.92
2018-09-11T02:14:54.331Z,14.94
2018-09-11T02:17:22.873Z,14.91
2018-09-11T02:19:51.440Z,14.85
2018-09-11T02:22:20.004Z,14.84
2018-09-11T02:24:48.526Z,14.94
2018-09-11T02:27:17.080Z,15.01
2018-09-11T02:29:45.536Z,15.18
2018-09-11T02:32:14.061Z,15.35
2018-09-11T02:34:42.568Z,15.53
2018-09-11T02:37:11.215Z,15.65
2018-09-11T02:39:39.784Z,15.77
2018-09-11T02:42:08.293Z,15.86
2018-09-11T02:44:36.913Z,15.97
2018-09-11T02:47:05.475Z,16.05
2018-09-11T02:49:34.540Z,16.14
2018-09-11T02:52:03.457Z,16.19
2018-09-11T02:54:32.001Z,16.21
2018-09-11T02:57:00.497Z,16.21
2018-09-11T02:59:36.456Z,16.22
2018-09-11T03:02:05.224Z,16.27
2018-09-11T03:04:33.711Z,16.27
2018-09-11T03:07:02.213Z,16.30
2018-09-11T03:09:30.669Z,16.31
2018-09-11T03:11:59.209Z,16.32
2018-09-11T03:14:27.724Z,16.35
2018-09-11T03:16:56.182Z,16.33
2018-09-11T03:19:24.737Z,16.35
2018-09-11T03:21:53.359Z,16.37
2018-09-11T03:24:21.867Z,16.38
2018-09-11T03:27:03.565Z,16.38
2018-09-11T03:29:32.092Z,16.40
2018-09-11T03:32:17.642Z,16.43
2018-09-11T03:34:46.110Z,16.45
2018-09-11T03:37:14.686Z,16.46
2018-09-11T03:39:43.224Z,16.46
2018-09-11T03:42:11.802Z,16.48
2018-09-11T03:44:40.334Z,16.50
2018-09-11T03:47:10.461Z,16.47
2018-09-11T03:49:38.934Z,16.48
2018-09-11T03:52:07.433Z,16.47
2018-09-11T03:54:36.001Z,16.45
2018-09-11T03:57:04.689Z,16.47
2018-09-11T03:59:33.156Z,16.47
2018-09-11T04:02:01.670Z,16.48
2018-09-11T04:04:30.250Z,16.49
2018-09-11T04:06:58.920Z,16.54
2018-09-11T04:09:27.449Z,16.52
2018-09-11T04:11:55.887Z,16.55
2018-09-11T04:14:24.305Z,16.54
2018-09-11T04:16:52.739Z,16.54
2018-09-11T04:19:21.154Z,16.52
2018-09-11T04:21:49.598Z,16.51
2018-09-11T04:24:18.142Z,16.47
2018-09-11T04:26:46.628Z,16.45
2018-09-11T04:29:15.360Z,16.42
2018-09-11T04:31:43.853Z,16.42
2018-09-11T04:34:12.313Z,16.46
2018-09-11T04:36:40.804Z,16.48
2018-09-11T04:39:09.840Z,16.50
2018-09-11T04:41:38.484Z,16.54
2018-09-11T04:44:07.010Z,16.55
2018-09-11T04:46:35.441Z,16.54
2018-09-11T04:49:03.885Z,16.51
2018-09-11T04:51:32.328Z,16.48
2018-09-11T04:54:00.841Z,16.38
2018-09-11T04:56:29.476Z,16.34
2018-09-11T04:58:58.000Z,16.27
2018-09-11T05:01:26.416Z,16.25
2018-09-11T05:03:54.866Z,16.22
2018-09-11T05:06:23.311Z,16.20
2018-09-11T05:08:59.258Z,16.19
2018-09-11T05:11:27.750Z,16.16
2018-09-11T05:13:56.238Z,16.11
2018-09-11T05:16:24.777Z,16.10
2018-09-11T05:18:53.407Z,16.03
2018-09-11T05:21:22.097Z,16.07
2018-09-11T05:23:50.510Z,16.05
2018-09-11T05:26:18.927Z,16.02
2018-09-11T05:28:47.423Z,15.98
2018-09-11T05:31:15.954Z,15.99
2018-09-11T05:33:44.398Z,16.00
2018-09-11T05:36:13.077Z,15.99
2018-09-11T05:38:41.513Z,16.00
2018-09-11T05:41:10.027Z,16.01
2018-09-11T05:43:56.036Z,15.98
2018-09-11T05:46:24.517Z,15.94
2018-09-11T05:48:53.142Z,15.93
2018-09-11T05:51:21.788Z,15.94
2018-09-11T05:53:50.238Z,15.91
2018-09-11T05:56:18.763Z,15.88
2018-09-11T05:58:47.260Z,15.88
2018-09-11T06:01:15.818Z,15.86
2018-09-11T06:03:44.307Z,15.85
2018-09-11T06:06:12.757Z,15.86
2018-09-11T06:08:41.241Z,15.87
2018-09-11T06:11:09.782Z,15.87
2018-09-11T06:13:38.344Z,15.88
2018-09-11T06:16:07.085Z,15.91
2018-09-11T06:18:35.535Z,15.98
2018-09-11T06:21:04.221Z,16.01
2018-09-11T06:23:32.785Z,16.06
2018-09-11T06:26:01.240Z,16.15
2018-09-11T06:28:29.688Z,16.24
2018-09-11T06:30:58.312Z,16.26
2018-09-11T06:33:26.855Z,16.33
2018-09-11T06:35:55.362Z,16.39
2018-09-11T06:38:23.962Z,16.46
2018-09-11T06:40:52.447Z,16.51
2018-09-11T06:43:20.965Z,16.53
2018-09-11T06:45:49.597Z,16.60
2018-09-11T06:48:19.319Z,16.67
2018-09-11T06:50:47.839Z,16.72
2018-09-11T06:53:16.406Z,16.75
2018-09-11T06:55:44.882Z,16.78
2018-09-11T06:58:13.763Z,16.87
2018-09-11T07:00:42.395Z,16.99
2018-09-11T07:03:10.929Z,17.10
2018-09-11T07:05:39.413Z,17.17
2018-09-11T07:08:07.894Z,17.23
2018-09-11T07:10:36.552Z,17.30
2018-09-11T07:13:05.100Z,17.38
2018-09-11T07:15:33.550Z,17.40
2018-09-11T07:18:02.204Z,17.49
2018-09-11T07:20:30.750Z,17.58
2018-09-11T07:23:21.020Z,17.62
2018-09-11T07:25:49.480Z,17.79
2018-09-11T07:28:18.025Z,17.88
2018-09-11T07:30:47.790Z,17.99
2018-09-11T07:33:16.366Z,18.08
2018-09-11T07:35:44.909Z,18.11
2018-09-11T07:38:17.190Z,18.18
2018-09-11T07:40:46.072Z,18.24
2018-09-11T07:43:14.578Z,18.34
2018-09-11T07:45:43.072Z,18.51
2018-09-11T07:48:11.536Z,18.63
2018-09-11T07:50:40.049Z,18.71
2018-09-11T07:53:08.618Z,18.81
2018-09-11T07:55:37.116Z,18.88
2018-09-11T07:58:05.615Z,19.03
2018-09-11T08:00:34.453Z,19.06
2018-09-11T08:03:02.960Z,19.12
2018-09-11T08:05:31.471Z,19.24
2018-09-11T08:07:59.922Z,19.19
2018-09-11T08:10:28.394Z,19.29
2018-09-11T08:12:57.383Z,19.40
2018-09-11T08:15:25.933Z,19.57
2018-09-11T08:17:54.513Z,19.65
2018-09-11T08:20:22.945Z,19.68
2018-09-11T08:22:51.477Z,19.76
2018-09-11T08:25:20.017Z,19.84
2018-09-11T08:27:48.469Z,19.80
2018-09-11T08:30:17.074Z,19.92
2018-09-11T08:32:45.563Z,20.00
2018-09-11T08:35:14.065Z,20.06
2018-09-11T08:37:42.624Z,20.16
2018-09-11T08:40:11.085Z,20.30
2018-09-11T08:42:39.586Z,20.45
2018-09-11T08:45:08.212Z,20.57
2018-09-11T08:47:36.762Z,20.63
2018-09-11T08:50:05.249Z,20.66
2018-09-11T08:52:33.902Z,20.71
2018-09-11T08:55:02.327Z,20.86
2018-09-11T08:57:30.765Z,21.01
2018-09-11T08:59:59.267Z,21.17
2018-09-11T09:02:27.710Z,21.27
2018-09-11T09:04:56.601Z,21.32
2018-09-11T09:07:36.695Z,21.40
2018-09-11T09:10:05.539Z,21.56
2018-09-11T09:12:34.279Z,21.52
2018-09-11T09:15:02.773Z,21.57
2018-09-11T09:17:31.288Z,21.52
2018-09-11T09:19:59.838Z,21.64
2018-09-11T09:22:28.307Z,21.66
2018-09-11T09:24:57.092Z,21.78
2018-09-11T09:27:25.588Z,21.90
2018-09-11T09:29:56.268Z,21.90
2018-09-11T09:32:24.798Z,21.87
2018-09-11T09:34:53.259Z,21.92
2018-09-11T09:37:22.490Z,21.91
2018-09-11T09:39:50.946Z,21.86
2018-09-11T09:42:19.533Z,21.84
2018-09-11T09:44:48.222Z,21.90
2018-09-11T09:47:16.820Z,21.98
2018-09-11T09:49:45.589Z,22.06
2018-09-11T09:52:14.121Z,22.05
2018-09-11T09:54:42.671Z,22.09
2018-09-11T09:57:11.227Z,22.22
2018-09-11T09:59:39.640Z,22.41
2018-09-11T10:02:13.274Z,22.44
2018-09-11T10:04:41.892Z,22.42
2018-09-11T10:07:10.404Z,22.45
2018-09-11T10:09:38.844Z,22.64
2018-09-11T10:12:07.617Z,22.66
2018-09-11T10:14:36.162Z,22.72
2018-09-11T10:17:04.841Z,22.90
2018-09-11T10:19:33.411Z,23.10
2018-09-11T10:22:02.047Z,23.24
2018-09-11T10:24:30.478Z,23.21
2018-09-11T10:26:59.445Z,23.36
2018-09-11T10:29:27.943Z,23.45
2018-09-11T10:31:56.369Z,23.32
2018-09-11T10:34:25.992Z,23.36
2018-09-11T10:36:54.741Z,23.36
2018-09-11T10:39:23.521Z,23.45
2018-09-11T10:41:52.051Z,23.55
2018-09-11T10:44:20.629Z,23.70
2018-09-11T10:46:49.175Z,23.78
2018-09-11T10:49:17.673Z,23.90
2018-09-11T10:51:46.509Z,23.94
2018-09-11T10:54:15.036Z,23.85
2018-09-11T10:56:43.487Z,23.83
2018-09-11T10:59:12.030Z,23.74
2018-09-11T11:01:40.586Z,23.83
2018-09-11T11:04:09.464Z,23.79
2018-09-11T11:06:37.969Z,23.82
2018-09-11T11:09:08.853Z,24.02
2018-09-11T11:11:37.313Z,24.03
2018-09-11T11:14:05.957Z,24.14
2018-09-11T11:16:34.437Z,24.14
2018-09-11T11:19:02.944Z,24.28
2018-09-11T11:21:31.407Z,24.45
2018-09-11T11:23:59.916Z,24.58
2018-09-11T11:26:28.509Z,24.68
2018-09-11T11:29:00.665Z,24.82
2018-09-11T11:31:29.326Z,25.09
2018-09-11T11:33:57.798Z,25.14
2018-09-11T11:36:26.426Z,25.23
2018-09-11T11:38:54.742Z,25.36
2018-09-11T11:41:23.182Z,25.38
2018-09-11T11:43:51.728Z,25.44
2018-09-11T11:46:20.304Z,25.56
2018-09-11T11:48:48.722Z,25.59
2018-09-11T11:51:17.167Z,25.75
2018-09-11T11:53:45.652Z,25.82
2018-09-11T11:56:14.173Z,25.81
2018-09-11T11:58:46.591Z,25.93
2018-09-11T12:01:15.185Z,25.95
2018-09-11T12:03:43.620Z,26.06
2018-09-11T12:06:12.498Z,26.18
2018-09-11T12:08:41.048Z,26.37
2018-09-11T12:11:09.534Z,26.59
2018-09-11T12:13:37.985Z,26.57
2018-09-11T12:16:06.512Z,26.50
2018-09-11T12:18:34.976Z,26.54
2018-09-11T12:21:03.457Z,26.64
2018-09-11T12:23:31.942Z,26.63
2018-09-11T12:26:00.439Z,26.63
2018-09-11T12:28:28.900Z,26.90
2018-09-11T12:30:57.531Z,27.12
2018-09-11T12:33:26.055Z,27.33
2018-09-11T12:35:54.593Z,27.38
2018-09-11T12:38:23.129Z,27.52
2018-09-11T12:40:51.611Z,27.76
2018-09-11T12:43:20.105Z,27.96
2018-09-11T12:45:48.860Z,28.23
2018-09-11T12:48:17.805Z,28.21
2018-09-11T12:50:45.952Z,28.25
2018-09-11T12:53:14.372Z,28.40
2018-09-11T12:55:42.916Z,28.56
2018-09-11T12:58:11.390Z,28.50
2018-09-11T13:00:39.873Z,28.73
2018-09-11T13:03:08.393Z,28.86
2018-09-11T13:05:37.870Z,28.77
2018-09-11T13:08:06.438Z,28.72
2018-09-11T13:10:34.924Z,28.73
2018-09-11T13:13:03.504Z,28.80
2018-09-11T13:15:32.102Z,28.98
2018-09-11T13:18:00.555Z,29.04
2018-09-11T13:20:29.065Z,28.99
2018-09-11T13:22:57.633Z,29.13
2018-09-11T13:25:26.153Z,29.25
2018-09-11T13:27:54.701Z,29.39
2018-09-11T13:30:23.181Z,29.35
2018-09-11T13:32:51.736Z,29.42
2018-09-11T13:35:21.518Z,29.56
2018-09-11T13:37:50.145Z,29.76
2018-09-11T13:40:18.744Z,29.66
2018-09-11T13:42:47.229Z,29.48
2018-09-11T13:45:16.901Z,29.24
2018-09-11T13:47:45.388Z,29.21
2018-09-11T13:50:13.854Z,29.21
2018-09-11T13:52:43.633Z,29.33
2018-09-11T13:55:12.334Z,29.12
2018-09-11T13:57:42.320Z,29.05
2018-09-11T14:00:11.020Z,29.12
2018-09-11T14:02:39.974Z,29.18
2018-09-11T14:05:08.645Z,29.14
2018-09-11T14:07:37.225Z,29.03
2018-09-11T14:10:05.693Z,29.00
2018-09-11T14:12:34.240Z,29.03
2018-09-11T14:15:02.750Z,29.11
2018-09-11T14:17:31.300Z,29.15
2018-09-11T14:20:00.006Z,29.26
2018-09-11T14:22:28.472Z,29.11
2018-09-11T14:24:57.094Z,29.24
2018-09-11T14:27:25.683Z,29.25
2018-09-11T14:29:54.367Z,29.43
2018-09-11T14:32:22.897Z,29.34
2018-09-11T14:35:22.976Z,29.22
2018-09-11T14:37:51.551Z,29.00
2018-09-11T14:40:20.005Z,28.96
2018-09-11T14:43:02.722Z,28.98
2018-09-11T14:45:31.598Z,29.15
2018-09-11T14:48:00.085Z,28.90
2018-09-11T14:50:28.575Z,28.79
2018-09-11T14:52:57.126Z,28.72
2018-09-11T14:55:25.667Z,28.81
2018-09-11T14:57:54.518Z,28.94
2018-09-11T15:00:23.094Z,28.89
2018-09-11T15:02:51.625Z,28.89
2018-09-11T15:05:20.180Z,28.73
2018-09-11T15:07:48.705Z,28.74
2018-09-11T15:10:17.429Z,28.82
2018-09-11T15:12:45.909Z,28.75
2018-09-11T15:15:14.459Z,28.66
2018-09-11T15:17:43.870Z,28.56
2018-09-11T15:23:39.389Z,28.52
2018-09-11T15:26:07.981Z,28.45
2018-09-11T15:28:36.502Z,28.37
2018-09-11T15:31:05.119Z,28.34
2018-09-11T15:33:33.676Z,28.22
2018-09-11T15:36:02.265Z,28.24
2018-09-11T15:38:30.706Z,28.33
2018-09-11T15:40:59.144Z,28.29
2018-09-11T15:43:27.706Z,28.31
2018-09-11T15:45:56.208Z,28.30
2018-09-11T15:48:24.786Z,28.27
2018-09-11T15:50:53.348Z,28.24
2018-09-11T15:53:21.826Z,28.35
2018-09-11T15:55:50.339Z,28.43
2018-09-11T15:58:18.887Z,28.40
2018-09-11T16:00:47.331Z,28.32
2018-09-11T16:03:15.861Z,28.19
2018-09-11T16:05:44.669Z,28.17
2018-09-11T16:08:13.265Z,28.19
2018-09-11T16:10:42.046Z,28.22
2018-09-11T16:13:10.698Z,28.12
2018-09-11T16:15:39.177Z,28.01
2018-09-11T16:18:07.614Z,27.96
2018-09-11T16:20:36.071Z,27.84
2018-09-11T16:23:04.667Z,27.73
2018-09-11T16:25:33.251Z,27.61
2018-09-11T16:28:01.797Z,27.58
2018-09-11T16:30:30.387Z,27.55
2018-09-11T16:32:58.901Z,27.51
2018-09-11T16:35:27.439Z,27.48
2018-09-11T16:37:55.920Z,27.45
2018-09-11T16:40:24.399Z,27.40
2018-09-11T16:42:52.879Z,27.30
2018-09-11T16:45:21.390Z,27.27
2018-09-11T16:47:49.857Z,27.22
2018-09-11T16:50:18.573Z,27.05
2018-09-11T16:52:47.116Z,26.95
2018-09-11T16:55:15.604Z,26.88
2018-09-11T16:57:44.278Z,26.86
2018-09-11T17:00:24.332Z,26.83
2018-09-11T17:03:07.865Z,26.71
2018-09-11T17:05:36.352Z,26.58
2018-09-11T17:08:04.829Z,26.37
2018-09-11T17:10:33.566Z,26.24
2018-09-11T17:13:02.136Z,26.08
2018-09-11T17:15:30.688Z,25.92
2018-09-11T17:17:59.194Z,25.79
2018-09-11T17:20:27.797Z,25.68
2018-09-11T17:22:56.359Z,25.57
2018-09-11T17:25:24.933Z,25.46
2018-09-11T17:27:53.391Z,25.37
2018-09-11T17:30:21.981Z,25.26
2018-09-11T17:32:51.236Z,25.16
2018-09-11T17:35:19.790Z,25.06
2018-09-11T17:37:48.376Z,24.96
2018-09-11T17:40:17.077Z,24.83
2018-09-11T17:42:45.635Z,24.73
2018-09-11T17:45:14.350Z,24.65
2018-09-11T17:47:42.919Z,24.54
2018-09-11T17:50:11.526Z,24.47
2018-09-11T17:52:41.320Z,24.37
2018-09-11T17:55:09.881Z,24.27
2018-09-11T17:57:38.716Z,24.20
2018-09-11T18:00:07.323Z,24.05
2018-09-11T18:02:35.877Z,23.96
2018-09-11T18:05:04.933Z,23.87
2018-09-11T18:07:46.607Z,23.77
2018-09-11T18:10:15.153Z,23.67
2018-09-11T18:12:43.699Z,23.56
2018-09-11T18:15:13.405Z,23.46
2018-09-11T18:17:41.855Z,23.37
2018-09-11T18:20:10.461Z,23.23
2018-09-11T18:22:50.736Z,23.12
2018-09-11T18:25:19.310Z,23.04
2018-09-11T18:27:47.935Z,22.95
2018-09-11T18:30:16.546Z,22.87
2018-09-11T18:32:45.326Z,22.77
2018-09-11T18:35:29.397Z,22.70
2018-09-11T18:37:58.057Z,22.65
2018-09-11T18:40:26.567Z,22.64
2018-09-11T18:42:55.209Z,22.60
2018-09-11T18:45:23.798Z,22.66
2018-09-11T18:47:52.380Z,22.67
2018-09-11T18:50:20.954Z,22.55
2018-09-11T18:52:49.418Z,22.43
2018-09-11T18:55:18.137Z,22.34
2018-09-11T18:57:46.928Z,22.19
2018-09-11T19:00:15.443Z,22.10
2018-09-11T19:02:43.888Z,22.11
2018-09-11T19:05:12.570Z,22.02
2018-09-11T19:07:40.962Z,21.91
2018-09-11T19:10:09.637Z,21.80
2018-09-11T19:12:38.419Z,21.70
2018-09-11T19:15:06.954Z,21.67
2018-09-11T19:17:45.991Z,21.56
2018-09-11T19:20:14.531Z,21.50
2018-09-11T19:22:43.032Z,21.41
2018-09-11T19:25:11.546Z,21.30
2018-09-11T19:27:40.071Z,21.29
2018-09-11T19:30:10.444Z,21.29
2018-09-11T19:32:39.169Z,21.30
2018-09-11T19:35:15.553Z,21.35
2018-09-11T19:37:44.079Z,21.43
2018-09-11T19:40:12.536Z,21.50
2018-09-11T19:42:40.962Z,21.45
2018-09-11T19:45:19.283Z,21.44
2018-09-11T19:47:47.840Z,21.37
2018-09-11T19:50:16.508Z,21.34
2018-09-11T19:52:45.116Z,21.31
2018-09-11T19:55:13.689Z,21.38
2018-09-11T19:57:42.449Z,21.34
2018-09-11T20:00:10.986Z,21.23
2018-09-11T20:02:39.565Z,21.12
2018-09-11T20:05:08.030Z,21.09
2018-09-11T20:07:45.829Z,21.02
2018-09-11T20:10:14.578Z,20.94
2018-09-11T20:12:43.095Z,20.92
2018-09-11T20:15:11.600Z,20.87
2018-09-11T20:17:40.182Z,20.79
2018-09-11T20:20:08.766Z,20.69
2018-09-11T20:22:37.348Z,20.65
2018-09-11T20:25:05.965Z,20.64
2018-09-11T20:27:35.618Z,20.60
2018-09-11T20:30:04.134Z,20.55
2018-09-11T20:32:32.595Z,20.51
2018-09-11T20:35:01.126Z,20.48
2018-09-11T20:37:29.618Z,20.49
2018-09-11T20:39:58.102Z,20.44
2018-09-11T20:42:26.550Z,20.43
2018-09-11T20:44:55.088Z,20.41
2018-09-11T20:47:23.539Z,20.42
2018-09-11T20:50:31.070Z,20.38
2018-09-11T20:52:59.621Z,20.31
2018-09-11T20:55:28.179Z,20.20
2018-09-11T20:57:56.765Z,20.11
2018-09-11T21:00:25.326Z,19.92
2018-09-11T21:02:53.838Z,19.76
2018-09-11T21:05:22.311Z,19.61
2018-09-11T21:07:50.866Z,19.56
2018-09-11T21:10:19.462Z,19.46
2018-09-11T21:12:47.952Z,19.32
2018-09-11T21:15:16.553Z,19.29
2018-09-11T21:17:45.049Z,19.30
2018-09-11T21:20:57.286Z,19.31
2018-09-11T21:23:25.759Z,19.24
2018-09-11T21:25:54.286Z,19.24
2018-09-11T21:28:22.996Z,19.18
2018-09-11T21:31:03.851Z,19.12
2018-09-11T21:33:32.323Z,19.04
2018-09-11T21:39:57.285Z,19.03
2018-09-11T21:42:49.944Z,19.06
2018-09-11T21:45:18.444Z,19.15
2018-09-11T21:47:46.886Z,19.17
2018-09-11T21:50:18.375Z,19.19
2018-09-11T21:52:46.878Z,19.19
2018-09-11T21:55:15.349Z,19.09
2018-09-11T21:57:43.864Z,18.99
2018-09-11T22:00:13.273Z,18.84
2018-09-11T22:02:41.878Z,18.70
2018-09-11T22:05:10.957Z,18.58
2018-09-11T22:07:39.437Z,18.46
2018-09-11T22:10:09.291Z,18.34
2018-09-11T22:12:37.720Z,18.19
2018-09-11T22:15:06.530Z,18.08
2018-09-11T22:17:35.097Z,18.11
2018-09-11T22:20:03.872Z,18.08
2018-09-11T22:22:32.463Z,18.00
2018-09-11T22:25:01.152Z,17.96
2018-09-11T22:27:29.772Z,17.99
2018-09-11T22:29:58.437Z,18.02
2018-09-11T22:32:26.916Z,17.96
2018-09-11T22:34:55.560Z,17.96
2018-09-11T22:37:24.068Z,17.96
2018-09-11T22:39:52.513Z,18.01
2018-09-11T22:42:21.020Z,18.05
2018-09-11T22:44:49.523Z,18.12
2018-09-11T22:47:18.237Z,18.19
2018-09-11T22:49:46.695Z,18.21
2018-09-11T22:52:15.136Z,18.18
2018-09-11T22:54:43.614Z,18.16
2018-09-11T22:57:12.236Z,18.19
2018-09-11T22:59:40.712Z,18.18
2018-09-11T23:02:09.130Z,18.11
2018-09-11T23:04:37.563Z,18.08
2018-09-11T23:07:06.153Z,18.05
2018-09-11T23:09:34.686Z,18.02
2018-09-11T23:12:03.222Z,18.08
2018-09-11T23:14:31.646Z,18.09
2018-09-11T23:17:00.182Z,18.13
2018-09-11T23:19:28.836Z,18.16
2018-09-11T23:21:57.353Z,18.17
2018-09-11T23:24:25.813Z,18.23
2018-09-11T23:26:54.329Z,18.29
2018-09-11T23:29:22.900Z,18.33
2018-09-11T23:31:51.414Z,18.45
2018-09-11T23:34:19.900Z,18.50
2018-09-11T23:36:48.477Z,18.55
2018-09-11T23:39:17.123Z,18.59
2018-09-11T23:41:45.651Z,18.65
2018-09-11T23:44:14.177Z,18.74
2018-09-11T23:46:42.664Z,18.79
2018-09-11T23:49:11.200Z,18.86
2018-09-11T23:51:40.057Z,18.95
2018-09-11T23:54:08.529Z,19.00
2018-09-11T23:56:37.017Z,19.09
2018-09-11T23:59:05.615Z,19.14
